sensor_id;sensor_type;location;lat;lon;timestamp;pressure;altitude;pressure_sealevel;temperature;humidity
17649;BME280;8943;51.110;-4.158;2023-08-06T00:01:55;101303.25;;;19.31;49.56
17649;BME280;8943;51.110;-4.158;2023-08-06T00:04:26;101297.63;;;19.24;49.72
17649;BME280;8943;51.110;-4.158;2023-08-06T00:06:55;101297.94;;;19.21;49.82
17649;BME280;8943;51.110;-4.158;2023-08-06T00:09:27;101295.94;;;19.23;49.76
17649;BME280;8943;51.110;-4.158;2023-08-06T00:11:56;101298.09;;;19.20;49.88
17649;BME280;8943;51.110;-4.158;2023-08-06T00:14:26;101306.38;;;19.18;50.03
17649;BME280;8943;51.110;-4.158;2023-08-06T00:17:03;101308.06;;;19.19;50.29
17649;BME280;8943;51.110;-4.158;2023-08-06T00:19:38;101311.59;;;19.20;49.97
17649;BME280;8943;51.110;-4.158;2023-08-06T00:22:26;101321.25;;;19.22;50.15
17649;BME280;8943;51.110;-4.158;2023-08-06T00:24:58;101314.84;;;19.23;50.33
17649;BME280;8943;51.110;-4.158;2023-08-06T00:27:31;101322.97;;;19.23;50.26
17649;BME280;8943;51.110;-4.158;2023-08-06T00:30:10;101317.00;;;19.20;50.64
17649;BME280;8943;51.110;-4.158;2023-08-06T00:39:44;101329.81;;;19.18;50.87
17649;BME280;8943;51.110;-4.158;2023-08-06T00:42:15;101335.63;;;19.23;50.55
17649;BME280;8943;51.110;-4.158;2023-08-06T00:44:48;101335.06;;;19.19;50.57
17649;BME280;8943;51.110;-4.158;2023-08-06T00:47:18;101331.66;;;19.17;50.94
17649;BME280;8943;51.110;-4.158;2023-08-06T00:49:49;101326.25;;;19.17;50.87
17649;BME280;8943;51.110;-4.158;2023-08-06T00:52:22;101331.38;;;19.20;51.07
17649;BME280;8943;51.110;-4.158;2023-08-06T00:55:26;101329.69;;;19.19;51.21
17649;BME280;8943;51.110;-4.158;2023-08-06T00:57:59;101324.41;;;19.18;51.22
17649;BME280;8943;51.110;-4.158;2023-08-06T01:00:28;101340.94;;;19.15;51.18
17649;BME280;8943;51.110;-4.158;2023-08-06T01:03:00;101337.06;;;19.17;51.09
17649;BME280;8943;51.110;-4.158;2023-08-06T01:11:54;101338.41;;;19.13;51.61
17649;BME280;8943;51.110;-4.158;2023-08-06T01:14:30;101339.53;;;19.11;51.61
17649;BME280;8943;51.110;-4.158;2023-08-06T01:17:03;101344.94;;;19.11;51.56
17649;BME280;8943;51.110;-4.158;2023-08-06T01:19:32;101350.06;;;19.14;51.29
17649;BME280;8943;51.110;-4.158;2023-08-06T01:22:03;101346.81;;;19.10;51.37
17649;BME280;8943;51.110;-4.158;2023-08-06T01:24:32;101356.59;;;19.11;51.72
17649;BME280;8943;51.110;-4.158;2023-08-06T01:27:06;101352.19;;;19.10;51.87
17649;BME280;8943;51.110;-4.158;2023-08-06T01:29:41;101351.53;;;19.08;51.42
17649;BME280;8943;51.110;-4.158;2023-08-06T01:32:20;101363.63;;;19.04;51.59
17649;BME280;8943;51.110;-4.158;2023-08-06T01:35:19;101358.34;;;19.02;51.68
17649;BME280;8943;51.110;-4.158;2023-08-06T01:37:50;101368.56;;;19.09;51.75
17649;BME280;8943;51.110;-4.158;2023-08-06T01:40:19;101359.91;;;19.05;51.82
17649;BME280;8943;51.110;-4.158;2023-08-06T01:42:48;101358.34;;;19.02;51.64
17649;BME280;8943;51.110;-4.158;2023-08-06T01:45:18;101359.91;;;19.05;51.58
17649;BME280;8943;51.110;-4.158;2023-08-06T01:47:49;101364.53;;;19.13;51.58
17649;BME280;8943;51.110;-4.158;2023-08-06T01:50:17;101365.72;;;19.10;51.75
17649;BME280;8943;51.110;-4.158;2023-08-06T01:52:46;101360.84;;;19.14;51.60
17649;BME280;8943;51.110;-4.158;2023-08-06T01:55:16;101368.13;;;19.13;51.77
17649;BME280;8943;51.110;-4.158;2023-08-06T01:57:45;101379.91;;;19.12;51.81
17649;BME280;8943;51.110;-4.158;2023-08-06T02:00:14;101373.91;;;19.18;51.53
17649;BME280;8943;51.110;-4.158;2023-08-06T02:02:43;101378.75;;;19.15;51.67
17649;BME280;8943;51.110;-4.158;2023-08-06T02:05:13;101385.00;;;19.15;51.83
17649;BME280;8943;51.110;-4.158;2023-08-06T02:07:45;101391.50;;;19.22;51.55
17649;BME280;8943;51.110;-4.158;2023-08-06T02:10:13;101380.84;;;19.21;51.78
17649;BME280;8943;51.110;-4.158;2023-08-06T02:12:54;101388.09;;;19.20;51.94
17649;BME280;8943;51.110;-4.158;2023-08-06T02:15:23;101391.66;;;19.21;51.73
17649;BME280;8943;51.110;-4.158;2023-08-06T02:17:58;101387.94;;;19.22;51.77
17649;BME280;8943;51.110;-4.158;2023-08-06T02:20:28;101383.84;;;19.18;51.73
17649;BME280;8943;51.110;-4.158;2023-08-06T02:23:28;101382.88;;;19.19;51.79
17649;BME280;8943;51.110;-4.158;2023-08-06T02:25:58;101389.09;;;19.19;51.87
17649;BME280;8943;51.110;-4.158;2023-08-06T02:28:27;101369.34;;;19.19;51.89
17649;BME280;8943;51.110;-4.158;2023-08-06T02:31:11;101383.38;;;19.22;51.68
17649;BME280;8943;51.110;-4.158;2023-08-06T02:34:02;101377.97;;;19.22;51.65
17649;BME280;8943;51.110;-4.158;2023-08-06T02:36:33;101372.44;;;19.24;51.63
17649;BME280;8943;51.110;-4.158;2023-08-06T02:39:03;101377.97;;;19.22;51.58
17649;BME280;8943;51.110;-4.158;2023-08-06T02:41:32;101383.72;;;19.19;51.89
17649;BME280;8943;51.110;-4.158;2023-08-06T02:44:01;101381.28;;;19.16;51.89
17649;BME280;8943;51.110;-4.158;2023-08-06T02:46:30;101385.69;;;19.17;52.04
17649;BME280;8943;51.110;-4.158;2023-08-06T02:49:10;101392.44;;;19.13;51.98
17649;BME280;8943;51.110;-4.158;2023-08-06T02:51:39;101396.44;;;19.09;51.99
17649;BME280;8943;51.110;-4.158;2023-08-06T02:57:33;101394.63;;;19.00;51.87
17649;BME280;8943;51.110;-4.158;2023-08-06T03:00:02;101387.53;;;18.99;51.79
17649;BME280;8943;51.110;-4.158;2023-08-06T03:02:31;101383.13;;;18.98;51.81
17649;BME280;8943;51.110;-4.158;2023-08-06T03:05:00;101387.28;;;18.92;52.10
17649;BME280;8943;51.110;-4.158;2023-08-06T03:07:28;101386.25;;;18.93;52.05
17649;BME280;8943;51.110;-4.158;2023-08-06T03:09:57;101388.44;;;18.90;52.13
17649;BME280;8943;51.110;-4.158;2023-08-06T03:12:27;101386.03;;;18.87;52.02
17649;BME280;8943;51.110;-4.158;2023-08-06T03:14:58;101387.44;;;18.91;52.39
17649;BME280;8943;51.110;-4.158;2023-08-06T03:17:26;101394.84;;;18.89;52.20
17649;BME280;8943;51.110;-4.158;2023-08-06T03:19:55;101389.13;;;18.92;52.06
17649;BME280;8943;51.110;-4.158;2023-08-06T03:22:23;101397.22;;;18.92;52.23
17649;BME280;8943;51.110;-4.158;2023-08-06T03:24:54;101388.56;;;18.88;52.55
17649;BME280;8943;51.110;-4.158;2023-08-06T03:27:23;101383.44;;;18.95;52.68
17649;BME280;8943;51.110;-4.158;2023-08-06T03:29:52;101384.97;;;18.97;52.64
17649;BME280;8943;51.110;-4.158;2023-08-06T03:32:21;101384.84;;;18.99;52.67
17649;BME280;8943;51.110;-4.158;2023-08-06T03:34:53;101392.09;;;18.98;52.32
17649;BME280;8943;51.110;-4.158;2023-08-06T03:37:24;101391.59;;;19.03;52.65
17649;BME280;8943;51.110;-4.158;2023-08-06T03:39:53;101397.44;;;19.08;52.63
17649;BME280;8943;51.110;-4.158;2023-08-06T03:42:21;101391.03;;;19.09;52.60
17649;BME280;8943;51.110;-4.158;2023-08-06T03:44:54;101395.72;;;19.07;52.68
17649;BME280;8943;51.110;-4.158;2023-08-06T03:47:34;101388.84;;;19.13;52.51
17649;BME280;8943;51.110;-4.158;2023-08-06T03:50:04;101381.91;;;19.10;52.43
17649;BME280;8943;51.110;-4.158;2023-08-06T03:52:34;101378.53;;;19.08;52.59
17649;BME280;8943;51.110;-4.158;2023-08-06T03:55:07;101374.19;;;19.15;52.50
17649;BME280;8943;51.110;-4.158;2023-08-06T03:57:36;101382.00;;;19.18;52.37
17649;BME280;8943;51.110;-4.158;2023-08-06T04:00:07;101386.69;;;19.16;52.37
17649;BME280;8943;51.110;-4.158;2023-08-06T04:02:52;101386.41;;;19.19;52.23
17649;BME280;8943;51.110;-4.158;2023-08-06T04:05:22;101389.25;;;19.18;52.24
17649;BME280;8943;51.110;-4.158;2023-08-06T04:07:52;101392.25;;;19.15;52.20
17649;BME280;8943;51.110;-4.158;2023-08-06T04:10:21;101394.81;;;19.16;52.35
17649;BME280;8943;51.110;-4.158;2023-08-06T04:12:50;101391.81;;;19.19;52.25
17649;BME280;8943;51.110;-4.158;2023-08-06T04:15:19;101398.22;;;19.18;52.03
17649;BME280;8943;51.110;-4.158;2023-08-06T04:17:54;101400.94;;;19.18;52.28
17649;BME280;8943;51.110;-4.158;2023-08-06T04:20:23;101400.94;;;19.18;52.01
17649;BME280;8943;51.110;-4.158;2023-08-06T04:22:54;101394.41;;;19.11;52.40
17649;BME280;8943;51.110;-4.158;2023-08-06T04:25:23;101399.81;;;19.11;52.38
17649;BME280;8943;51.110;-4.158;2023-08-06T04:27:56;101399.53;;;19.14;52.30
17649;BME280;8943;51.110;-4.158;2023-08-06T04:30:25;101392.44;;;19.13;52.59
17649;BME280;8943;51.110;-4.158;2023-08-06T04:32:56;101401.50;;;19.12;52.44
17649;BME280;8943;51.110;-4.158;2023-08-06T04:35:26;101402.91;;;19.16;52.42
17649;BME280;8943;51.110;-4.158;2023-08-06T04:37:55;101396.97;;;19.13;52.41
17649;BME280;8943;51.110;-4.158;2023-08-06T04:40:24;101405.38;;;19.10;52.18
17649;BME280;8943;51.110;-4.158;2023-08-06T04:42:53;101404.22;;;19.12;52.53
17649;BME280;8943;51.110;-4.158;2023-08-06T04:45:22;101401.22;;;19.15;52.61
17649;BME280;8943;51.110;-4.158;2023-08-06T04:47:51;101410.84;;;19.18;52.71
17649;BME280;8943;51.110;-4.158;2023-08-06T04:50:21;101415.13;;;19.20;52.65
17649;BME280;8943;51.110;-4.158;2023-08-06T04:52:49;101414.81;;;19.23;52.82
17649;BME280;8943;51.110;-4.158;2023-08-06T04:55:18;101411.28;;;19.23;52.48
17649;BME280;8943;51.110;-4.158;2023-08-06T04:57:47;101418.81;;;19.19;52.67
17649;BME280;8943;51.110;-4.158;2023-08-06T05:00:16;101420.81;;;19.17;52.85
17649;BME280;8943;51.110;-4.158;2023-08-06T05:02:44;101423.06;;;19.22;52.73
17649;BME280;8943;51.110;-4.158;2023-08-06T05:05:13;101430.31;;;19.21;52.76
17649;BME280;8943;51.110;-4.158;2023-08-06T05:07:43;101431.09;;;19.14;53.00
17649;BME280;8943;51.110;-4.158;2023-08-06T05:10:12;101424.06;;;19.21;53.03
17649;BME280;8943;51.110;-4.158;2023-08-06T05:12:40;101422.53;;;19.18;52.93
17649;BME280;8943;51.110;-4.158;2023-08-06T05:15:09;101438.59;;;19.20;52.74
17649;BME280;8943;51.110;-4.158;2023-08-06T05:17:37;101433.28;;;19.28;52.76
17649;BME280;8943;51.110;-4.158;2023-08-06T05:20:07;101435.44;;;19.24;52.57
17649;BME280;8943;51.110;-4.158;2023-08-06T05:22:35;101445.78;;;19.29;52.58
17649;BME280;8943;51.110;-4.158;2023-08-06T05:25:07;101444.94;;;19.28;52.77
17649;BME280;8943;51.110;-4.158;2023-08-06T05:27:36;101445.63;;;19.30;52.69
17649;BME280;8943;51.110;-4.158;2023-08-06T05:30:06;101450.41;;;19.37;52.40
17649;BME280;8943;51.110;-4.158;2023-08-06T05:32:34;101452.13;;;19.38;52.28
17649;BME280;8943;51.110;-4.158;2023-08-06T05:35:03;101459.63;;;19.44;52.13
17649;BME280;8943;51.110;-4.158;2023-08-06T05:37:31;101470.28;;;19.45;51.95
17649;BME280;8943;51.110;-4.158;2023-08-06T05:39:59;101472.69;;;19.48;51.97
17649;BME280;8943;51.110;-4.158;2023-08-06T05:42:30;101473.69;;;19.47;52.03
17649;BME280;8943;51.110;-4.158;2023-08-06T05:44:58;101475.53;;;19.47;51.83
17649;BME280;8943;51.110;-4.158;2023-08-06T05:47:27;101476.63;;;19.54;51.90
17649;BME280;8943;51.110;-4.158;2023-08-06T05:49:55;101473.22;;;19.52;51.99
17649;BME280;8943;51.110;-4.158;2023-08-06T05:52:24;101472.91;;;19.55;51.76
17649;BME280;8943;51.110;-4.158;2023-08-06T05:54:53;101481.19;;;19.53;51.89
17649;BME280;8943;51.110;-4.158;2023-08-06T05:57:21;101485.44;;;19.56;52.05
17649;BME280;8943;51.110;-4.158;2023-08-06T05:59:51;101486.13;;;19.58;52.07
17649;BME280;8943;51.110;-4.158;2023-08-06T06:02:19;101491.25;;;19.61;51.98
17649;BME280;8943;51.110;-4.158;2023-08-06T06:04:49;101492.81;;;19.64;51.91
17649;BME280;8943;51.110;-4.158;2023-08-06T06:07:17;101504.88;;;19.69;51.66
17649;BME280;8943;51.110;-4.158;2023-08-06T06:09:46;101499.06;;;19.64;51.84
17649;BME280;8943;51.110;-4.158;2023-08-06T06:12:15;101505.06;;;19.58;51.84
17649;BME280;8943;51.110;-4.158;2023-08-06T06:14:43;101508.19;;;19.63;51.63
17649;BME280;8943;51.110;-4.158;2023-08-06T06:17:16;101508.50;;;19.60;51.95
17649;BME280;8943;51.110;-4.158;2023-08-06T06:19:44;101505.50;;;19.63;51.77
17649;BME280;8943;51.110;-4.158;2023-08-06T06:22:14;101510.75;;;19.65;51.75
17649;BME280;8943;51.110;-4.158;2023-08-06T06:24:43;101503.09;;;19.60;51.79
17649;BME280;8943;51.110;-4.158;2023-08-06T06:27:12;101500.22;;;19.62;51.60
17649;BME280;8943;51.110;-4.158;2023-08-06T06:29:42;101515.00;;;19.67;51.52
17649;BME280;8943;51.110;-4.158;2023-08-06T06:32:11;101513.28;;;19.66;51.59
17649;BME280;8943;51.110;-4.158;2023-08-06T06:34:43;101522.09;;;19.68;51.81
17649;BME280;8943;51.110;-4.158;2023-08-06T06:37:12;101525.19;;;19.73;52.05
17649;BME280;8943;51.110;-4.158;2023-08-06T06:39:40;101524.28;;;19.83;51.98
17649;BME280;8943;51.110;-4.158;2023-08-06T06:42:08;101528.78;;;19.92;51.91
17649;BME280;8943;51.110;-4.158;2023-08-06T06:44:37;101531.25;;;20.03;51.79
17649;BME280;8943;51.110;-4.158;2023-08-06T06:47:05;101531.09;;;20.22;51.78
17649;BME280;8943;51.110;-4.158;2023-08-06T06:49:33;101538.00;;;20.43;50.95
17649;BME280;8943;51.110;-4.158;2023-08-06T06:52:11;101538.00;;;20.43;51.47
17649;BME280;8943;51.110;-4.158;2023-08-06T06:54:43;101548.25;;;20.49;50.55
17649;BME280;8943;51.110;-4.158;2023-08-06T06:57:14;101538.16;;;20.59;50.76
17649;BME280;8943;51.110;-4.158;2023-08-06T06:59:43;101547.53;;;20.65;50.29
17649;BME280;8943;51.110;-4.158;2023-08-06T07:02:16;101541.66;;;20.69;49.63
17649;BME280;8943;51.110;-4.158;2023-08-06T07:04:44;101551.13;;;20.73;49.63
17649;BME280;8943;51.110;-4.158;2023-08-06T07:07:15;101542.31;;;20.71;49.64
17649;BME280;8943;51.110;-4.158;2023-08-06T07:09:47;101556.97;;;20.87;49.26
17649;BME280;8943;51.110;-4.158;2023-08-06T07:12:20;101551.25;;;20.90;49.25
17649;BME280;8943;51.110;-4.158;2023-08-06T07:14:51;101563.09;;;20.89;48.92
17649;BME280;8943;51.110;-4.158;2023-08-06T07:17:35;101563.03;;;20.80;48.84
17649;BME280;8943;51.110;-4.158;2023-08-06T07:20:07;101559.31;;;20.81;48.16
17649;BME280;8943;51.110;-4.158;2023-08-06T07:23:34;101555.38;;;20.76;48.17
17649;BME280;8943;51.110;-4.158;2023-08-06T07:26:15;101570.16;;;20.81;48.61
17649;BME280;8943;51.110;-4.158;2023-08-06T07:29:08;101562.41;;;20.87;48.10
17649;BME280;8943;51.110;-4.158;2023-08-06T07:31:42;101574.06;;;20.87;48.41
17649;BME280;8943;51.110;-4.158;2023-08-06T07:34:33;101568.66;;;20.87;48.58
17649;BME280;8943;51.110;-4.158;2023-08-06T07:37:12;101571.06;;;20.90;48.04
17649;BME280;8943;51.110;-4.158;2023-08-06T07:40:34;101571.53;;;20.86;47.05
17649;BME280;8943;51.110;-4.158;2023-08-06T07:43:34;101563.44;;;20.68;47.21
17649;BME280;8943;51.110;-4.158;2023-08-06T07:46:09;101560.84;;;20.58;47.81
17649;BME280;8943;51.110;-4.158;2023-08-06T07:48:42;101576.41;;;20.56;48.14
17649;BME280;8943;51.110;-4.158;2023-08-06T07:54:26;101571.03;;;20.46;48.42
17649;BME280;8943;51.110;-4.158;2023-08-06T08:05:49;101577.47;;;20.27;48.75
17649;BME280;8943;51.110;-4.158;2023-08-06T08:08:36;101573.75;;;20.28;48.50
17649;BME280;8943;51.110;-4.158;2023-08-06T08:11:29;101572.44;;;20.32;48.80
17649;BME280;8943;51.110;-4.158;2023-08-06T08:14:01;101571.59;;;20.32;48.78
17649;BME280;8943;51.110;-4.158;2023-08-06T08:16:39;101572.91;;;20.28;48.97
17649;BME280;8943;51.110;-4.158;2023-08-06T08:19:14;101568.72;;;20.33;48.69
17649;BME280;8943;51.110;-4.158;2023-08-06T08:21:50;101570.59;;;20.33;48.56
17649;BME280;8943;51.110;-4.158;2023-08-06T08:24:19;101562.94;;;20.28;48.59
17649;BME280;8943;51.110;-4.158;2023-08-06T08:26:54;101570.28;;;20.36;48.50
17649;BME280;8943;51.110;-4.158;2023-08-06T08:29:35;101562.28;;;20.35;48.11
17649;BME280;8943;51.110;-4.158;2023-08-06T08:32:04;101575.16;;;20.32;48.04
17649;BME280;8943;51.110;-4.158;2023-08-06T08:34:32;101573.75;;;20.28;48.15
17649;BME280;8943;51.110;-4.158;2023-08-06T08:37:17;101581.97;;;20.37;48.28
17649;BME280;8943;51.110;-4.158;2023-08-06T08:39:52;101589.44;;;20.43;48.23
17649;BME280;8943;51.110;-4.158;2023-08-06T08:42:21;101587.91;;;20.58;48.18
17649;BME280;8943;51.110;-4.158;2023-08-06T08:48:08;101586.28;;;20.65;47.73
17649;BME280;8943;51.110;-4.158;2023-08-06T08:56:48;101593.84;;;20.44;47.06
17649;BME280;8943;51.110;-4.158;2023-08-06T08:59:17;101606.09;;;20.48;47.29
17649;BME280;8943;51.110;-4.158;2023-08-06T09:02:17;101598.69;;;20.50;46.59
17649;BME280;8943;51.110;-4.158;2023-08-06T09:05:09;101598.38;;;20.53;46.13
17649;BME280;8943;51.110;-4.158;2023-08-06T09:13:41;101607.50;;;20.52;45.78
17649;BME280;8943;51.110;-4.158;2023-08-06T09:16:28;101595.91;;;20.60;45.96
17649;BME280;8943;51.110;-4.158;2023-08-06T09:25:45;101598.72;;;20.76;45.87
17649;BME280;8943;51.110;-4.158;2023-08-06T09:41:46;101598.53;;;20.95;46.58
17649;BME280;8943;51.110;-4.158;2023-08-06T09:44:32;101592.63;;;21.00;46.67
17649;BME280;8943;51.110;-4.158;2023-08-06T09:55:37;101616.81;;;21.45;46.38
17649;BME280;8943;51.110;-4.158;2023-08-06T10:20:24;101627.50;;;21.89;45.26
17649;BME280;8943;51.110;-4.158;2023-08-06T10:23:03;101635.63;;;21.89;44.88
17649;BME280;8943;51.110;-4.158;2023-08-06T10:25:34;101633.75;;;21.90;44.64
17649;BME280;8943;51.110;-4.158;2023-08-06T10:35:07;101640.59;;;22.10;44.46
17649;BME280;8943;51.110;-4.158;2023-08-06T10:37:45;101642.00;;;22.14;43.77
17649;BME280;8943;51.110;-4.158;2023-08-06T10:40:29;101642.19;;;22.13;43.82
17649;BME280;8943;51.110;-4.158;2023-08-06T10:43:03;101652.47;;;22.09;43.72
17649;BME280;8943;51.110;-4.158;2023-08-06T10:45:53;101649.59;;;22.02;43.24
17649;BME280;8943;51.110;-4.158;2023-08-06T11:15:59;101653.97;;;21.95;44.05
17649;BME280;8943;51.110;-4.158;2023-08-06T11:39:27;101660.41;;;22.53;42.87
17649;BME280;8943;51.110;-4.158;2023-08-06T12:00:15;101651.06;;;22.63;43.54
17649;BME280;8943;51.110;-4.158;2023-08-06T12:19:29;101639.34;;;22.47;43.17
17649;BME280;8943;51.110;-4.158;2023-08-06T13:46:47;101664.41;;;25.40;38.61
17649;BME280;8943;51.110;-4.158;2023-08-06T13:50:07;101669.03;;;25.39;38.71
17649;BME280;8943;51.110;-4.158;2023-08-06T14:42:35;101677.78;;;27.09;35.28
17649;BME280;8943;51.110;-4.158;2023-08-06T15:43:38;101704.78;;;27.75;33.28
17649;BME280;8943;51.110;-4.158;2023-08-06T15:46:09;101703.06;;;27.18;34.13
17649;BME280;8943;51.110;-4.158;2023-08-06T15:48:39;101704.13;;;27.17;35.66
17649;BME280;8943;51.110;-4.158;2023-08-06T15:51:07;101708.34;;;26.98;35.69
17649;BME280;8943;51.110;-4.158;2023-08-06T16:01:19;101721.91;;;27.90;33.27
17649;BME280;8943;51.110;-4.158;2023-08-06T16:07:00;101719.59;;;28.35;33.86
17649;BME280;8943;51.110;-4.158;2023-08-06T16:53:03;101731.09;;;28.72;35.12
17649;BME280;8943;51.110;-4.158;2023-08-06T17:18:40;101734.69;;;28.66;32.52
17649;BME280;8943;51.110;-4.158;2023-08-06T17:21:31;101737.22;;;28.74;32.32
17649;BME280;8943;51.110;-4.158;2023-08-06T18:45:34;101751.66;;;29.36;32.21
17649;BME280;8943;51.110;-4.158;2023-08-06T18:48:53;101745.09;;;29.43;31.60
17649;BME280;8943;51.110;-4.158;2023-08-06T19:41:45;101752.00;;;23.18;41.61
17649;BME280;8943;51.110;-4.158;2023-08-06T21:06:48;101804.00;;;21.62;48.23
17649;BME280;8943;51.110;-4.158;2023-08-06T21:17:38;101807.81;;;21.69;48.51
17649;BME280;8943;51.110;-4.158;2023-08-06T21:20:12;101810.34;;;21.70;48.87
17649;BME280;8943;51.110;-4.158;2023-08-06T21:22:50;101809.19;;;21.73;48.63
17649;BME280;8943;51.110;-4.158;2023-08-06T21:25:21;101811.75;;;21.74;48.66
17649;BME280;8943;51.110;-4.158;2023-08-06T21:27:54;101812.13;;;21.79;48.46
17649;BME280;8943;51.110;-4.158;2023-08-06T21:30:23;101810.13;;;21.81;48.78
17649;BME280;8943;51.110;-4.158;2023-08-06T21:32:51;101806.53;;;21.81;49.15
17649;BME280;8943;51.110;-4.158;2023-08-06T21:35:21;101810.50;;;21.87;48.91
17649;BME280;8943;51.110;-4.158;2023-08-06T21:37:55;101817.59;;;21.88;48.81
17649;BME280;8943;51.110;-4.158;2023-08-06T21:40:24;101814.25;;;21.94;48.68
17649;BME280;8943;51.110;-4.158;2023-08-06T21:43:15;101817.13;;;21.92;48.89
17649;BME280;8943;51.110;-4.158;2023-08-06T21:45:44;101809.84;;;21.93;49.29
17649;BME280;8943;51.110;-4.158;2023-08-06T21:48:13;101816.78;;;21.95;49.03
17649;BME280;8943;51.110;-4.158;2023-08-06T21:50:41;101816.28;;;21.92;48.90
17649;BME280;8943;51.110;-4.158;2023-08-06T21:53:11;101813.69;;;21.90;49.51
17649;BME280;8943;51.110;-4.158;2023-08-06T21:55:39;101814.56;;;21.91;49.27
17649;BME280;8943;51.110;-4.158;2023-08-06T21:58:08;101810.13;;;21.81;49.62
17649;BME280;8943;51.110;-4.158;2023-08-06T22:00:36;101808.09;;;21.83;49.37
17649;BME280;8943;51.110;-4.158;2023-08-06T22:03:04;101799.25;;;21.81;49.60
17649;BME280;8943;51.110;-4.158;2023-08-06T22:05:33;101804.28;;;21.76;49.82
17649;BME280;8943;51.110;-4.158;2023-08-06T22:08:01;101804.28;;;21.76;49.81
17649;BME280;8943;51.110;-4.158;2023-08-06T22:10:31;101801.19;;;21.71;50.22
17649;BME280;8943;51.110;-4.158;2023-08-06T22:12:59;101801.19;;;21.71;50.12
17649;BME280;8943;51.110;-4.158;2023-08-06T22:15:27;101798.50;;;21.71;50.17
17649;BME280;8943;51.110;-4.158;2023-08-06T22:17:56;101787.13;;;21.68;50.22
17649;BME280;8943;51.110;-4.158;2023-08-06T22:20:24;101791.06;;;21.73;50.34
17649;BME280;8943;51.110;-4.158;2023-08-06T22:22:53;101794.78;;;21.72;50.07
17649;BME280;8943;51.110;-4.158;2023-08-06T22:25:21;101776.09;;;21.69;50.19
17649;BME280;8943;51.110;-4.158;2023-08-06T22:27:51;101789.72;;;21.77;50.10
17649;BME280;8943;51.110;-4.158;2023-08-06T22:30:19;101792.09;;;21.80;50.05
17649;BME280;8943;51.110;-4.158;2023-08-06T22:32:49;101786.00;;;21.78;50.03
17649;BME280;8943;51.110;-4.158;2023-08-06T22:35:18;101776.53;;;21.82;50.03
17649;BME280;8943;51.110;-4.158;2023-08-06T22:37:47;101776.53;;;21.82;50.04
17649;BME280;8943;51.110;-4.158;2023-08-06T22:40:17;101774.50;;;21.84;50.47
17649;BME280;8943;51.110;-4.158;2023-08-06T22:42:45;101771.31;;;21.89;50.13
17649;BME280;8943;51.110;-4.158;2023-08-06T22:45:15;101770.28;;;21.90;49.93
17649;BME280;8943;51.110;-4.158;2023-08-06T22:47:44;101763.34;;;21.88;50.24
17649;BME280;8943;51.110;-4.158;2023-08-06T22:50:12;101767.75;;;21.89;50.01
17649;BME280;8943;51.110;-4.158;2023-08-06T22:52:41;101753.16;;;21.90;50.03
17649;BME280;8943;51.110;-4.158;2023-08-06T22:55:09;101763.47;;;21.86;49.78
17649;BME280;8943;51.110;-4.158;2023-08-06T22:57:58;101760.44;;;21.89;49.69
17649;BME280;8943;51.110;-4.158;2023-08-06T23:00:28;101758.59;;;21.90;49.85
17649;BME280;8943;51.110;-4.158;2023-08-06T23:02:56;101757.91;;;21.88;49.89
17649;BME280;8943;51.110;-4.158;2023-08-06T23:05:37;101761.94;;;21.83;50.04
17649;BME280;8943;51.110;-4.158;2023-08-06T23:08:05;101755.69;;;21.83;49.91
17649;BME280;8943;51.110;-4.158;2023-08-06T23:10:36;101759.88;;;21.77;50.03
17649;BME280;8943;51.110;-4.158;2023-08-06T23:13:05;101759.19;;;21.75;49.96
17649;BME280;8943;51.110;-4.158;2023-08-06T23:15:41;101753.72;;;21.67;50.32
17649;BME280;8943;51.110;-4.158;2023-08-06T23:18:10;101758.56;;;21.55;50.38
17649;BME280;8943;51.110;-4.158;2023-08-06T23:20:38;101755.84;;;21.55;50.28
17649;BME280;8943;51.110;-4.158;2023-08-06T23:23:07;101755.09;;;21.45;50.55
17649;BME280;8943;51.110;-4.158;2023-08-06T23:25:39;101758.44;;;21.39;50.65
17649;BME280;8943;51.110;-4.158;2023-08-06T23:28:18;101749.22;;;21.32;50.49
17649;BME280;8943;51.110;-4.158;2023-08-06T23:30:48;101747.13;;;21.26;50.63
17649;BME280;8943;51.110;-4.158;2023-08-06T23:33:18;101751.00;;;21.23;50.34
17649;BME280;8943;51.110;-4.158;2023-08-06T23:35:46;101754.31;;;21.17;50.27
17649;BME280;8943;51.110;-4.158;2023-08-06T23:38:16;101756.28;;;21.07;50.49
17649;BME280;8943;51.110;-4.158;2023-08-06T23:40:45;101753.56;;;21.07;50.20
17649;BME280;8943;51.110;-4.158;2023-08-06T23:43:14;101753.91;;;21.04;50.18
17649;BME280;8943;51.110;-4.158;2023-08-06T23:45:42;101766.50;;;20.95;50.33
17649;BME280;8943;51.110;-4.158;2023-08-06T23:48:12;101768.50;;;20.93;50.46
17649;BME280;8943;51.110;-4.158;2023-08-06T23:50:41;101765.28;;;20.90;50.38
17649;BME280;8943;51.110;-4.158;2023-08-06T23:53:09;101758.47;;;20.86;50.32
17649;BME280;8943;51.110;-4.158;2023-08-06T23:55:37;101761.47;;;20.82;50.42
17649;BME280;8943;51.110;-4.158;2023-08-06T23:58:06;101762.94;;;20.77;50.60
